createdAt,value
2019-04-03T08:11:16.923Z,46.905518
2019-04-03T08:11:30.789Z,46.606445
2019-04-03T08:11:42.222Z,44.805908
2019-04-03T08:11:54.757Z,42.614746
2019-04-03T08:12:08.230Z,42.41333
2019-04-03T08:12:21.542Z,42.315674
2019-04-03T08:12:35.394Z,43.511963
2019-04-03T08:12:46.305Z,42.913818
2019-04-03T08:12:59.847Z,42.431641
2019-04-03T08:13:11.274Z,43.408203
2019-04-03T08:13:23.722Z,43.908691
2019-04-03T08:13:38.103Z,44.40918
2019-04-03T08:13:48.646Z,43.011475
2019-04-03T08:14:01.070Z,42.614746
2019-04-03T08:14:13.551Z,42.510986
2019-04-03T08:14:25.888Z,43.011475
2019-04-03T08:14:39.068Z,43.011475
2019-04-03T08:14:50.428Z,43.811035
2019-04-03T08:15:02.781Z,44.207764
2019-04-03T08:15:16.172Z,43.212891
2019-04-03T08:15:28.734Z,43.310547
2019-04-03T08:15:42.689Z,43.212891
2019-04-03T08:15:53.687Z,42.913818
2019-04-03T08:16:06.097Z,42.810059
2019-04-03T08:16:19.701Z,42.913818
2019-04-03T08:16:32.308Z,44.110107
2019-04-03T08:16:48.064Z,43.011475
2019-04-03T08:17:00.897Z,44.909668
2019-04-03T08:17:16.656Z,44.506836
2019-04-03T08:17:30.276Z,43.212891
2019-04-03T08:17:44.828Z,43.011475
2019-04-03T08:18:00.288Z,43.811035
2019-04-03T08:18:14.867Z,43.811035
2019-04-03T08:18:29.501Z,43.310547
2019-04-03T08:18:44.071Z,44.207764
2019-04-03T08:18:58.597Z,42.712402
2019-04-03T08:19:13.358Z,42.712402
2019-04-03T08:19:27.936Z,42.712402
2019-04-03T08:19:44.979Z,42.810059
2019-04-03T08:19:58.087Z,42.614746
2019-04-03T08:20:12.562Z,42.913818
2019-04-03T08:20:27.163Z,42.810059
2019-04-03T08:20:40.986Z,42.614746
2019-04-03T08:20:56.856Z,42.41333
2019-04-03T08:21:09.442Z,41.912842
2019-04-03T08:21:27.977Z,42.492676
2019-04-03T08:21:40.664Z,43.487549
2019-04-03T08:21:54.705Z,42.193604
2019-04-03T08:22:08.491Z,42.492676
2019-04-03T08:22:22.685Z,42.370605
2019-04-03T08:22:36.993Z,38.684082
2019-04-03T08:22:51.026Z,38.482666
2019-04-03T08:23:06.812Z,38.287354
2019-04-03T08:23:20.945Z,39.501953
2019-04-03T08:23:36.667Z,38.421631
2019-04-03T08:23:49.615Z,38.439941
2019-04-03T08:24:04.043Z,40.148926
2019-04-03T08:24:17.903Z,42.095947
2019-04-03T08:24:31.844Z,45.983887
2019-04-03T08:24:45.739Z,49.530029
2019-04-03T08:24:59.862Z,52.563477
2019-04-03T08:25:14.512Z,55.273438
2019-04-03T08:25:28.678Z,57.250977
2019-04-03T08:25:46.954Z,58.728027
2019-04-03T08:25:57.382Z,60.308838
2019-04-03T08:26:12.635Z,61.358643
2019-04-03T08:26:26.843Z,62.506104
2019-04-03T08:26:40.354Z,63.146973
2019-04-03T08:26:55.207Z,63.653564
2019-04-03T08:27:10.211Z,63.885498
2019-04-03T08:27:25.079Z,64.398193
2019-04-03T08:27:39.231Z,64.569092
2019-04-03T08:27:55.302Z,64.471436
2019-04-03T08:28:06.871Z,64.367676
2019-04-03T08:28:21.169Z,65.05127
2019-04-03T08:28:35.411Z,63.677979
2019-04-03T08:28:49.467Z,59.246826
2019-04-03T08:29:15.270Z,54.943848
2019-04-03T08:29:29.177Z,56.848145
2019-04-03T08:29:42.936Z,58.758545
2019-04-03T08:29:56.911Z,61.181641
2019-04-03T08:30:11.821Z,63.275146
2019-04-03T08:30:26.581Z,67.016602
2019-04-03T08:30:42.315Z,64.471436
2019-04-03T08:30:57.501Z,63.885498
2019-04-03T08:31:13.450Z,64.398193
2019-04-03T08:31:27.570Z,62.518311
2019-04-03T08:31:43.601Z,59.765625
2019-04-03T08:31:55.363Z,56.610107
2019-04-03T08:32:09.451Z,53.955078
2019-04-03T08:32:49.199Z,56.036377
2019-04-03T08:33:15.065Z,53.875732
2019-04-03T08:33:25.435Z,52.618408
2019-04-03T08:33:34.791Z,50.65918
2019-04-03T08:33:49.637Z,49.932861
2019-04-03T08:34:14.489Z,48.608398
2019-04-03T08:34:19.463Z,48.284912
2019-04-03T08:34:34.865Z,47.460938
2019-04-03T08:34:49.418Z,47.662354
2019-04-03T08:35:05.119Z,46.838379
2019-04-03T08:35:23.038Z,46.636963
2019-04-03T08:35:36.389Z,46.21582
2019-04-03T08:35:50.857Z,45.513916
2019-04-03T08:36:07.615Z,44.995117
2019-04-03T08:36:24.855Z,44.696045
2019-04-03T08:36:35.317Z,44.592285
2019-04-03T08:36:50.087Z,44.372559
2019-04-03T08:37:05.660Z,44.573975
2019-04-03T08:37:29.083Z,45.172119
2019-04-03T08:37:35.586Z,44.470215
2019-04-03T08:37:50.191Z,43.97583
2019-04-03T08:38:05.269Z,43.85376
2019-04-03T08:38:19.784Z,44.549561
2019-04-03T08:38:34.208Z,44.152832
2019-04-03T08:38:48.804Z,43.85376
2019-04-03T08:39:03.636Z,44.354248
2019-04-03T08:39:19.341Z,43.951416
2019-04-03T08:39:33.973Z,44.848633
2019-04-03T08:39:49.475Z,43.933105
2019-04-03T08:40:02.998Z,43.634033
2019-04-03T08:40:19.604Z,43.731689
2019-04-03T08:40:38.923Z,44.329834
2019-04-03T08:40:54.842Z,44.53125
2019-04-03T08:41:09.377Z,43.933105
2019-04-03T08:41:25.068Z,43.634033
2019-04-03T08:41:40.852Z,43.133545
2019-04-03T08:41:56.594Z,43.029785
2019-04-03T08:42:09.979Z,43.029785
2019-04-03T08:42:25.992Z,42.932129
2019-04-03T08:42:39.583Z,43.328857
2019-04-03T08:42:54.432Z,43.829346
2019-04-03T08:43:09.251Z,43.231201
2019-04-03T08:43:24.400Z,43.707275
2019-04-03T08:43:38.957Z,43.011475
2019-04-03T08:43:53.862Z,43.212891
2019-04-03T08:44:09.306Z,43.310547
2019-04-03T08:44:24.022Z,43.707275
2019-04-03T08:44:39.808Z,43.109131
2019-04-03T08:44:54.639Z,42.712402
2019-04-03T08:45:09.586Z,42.614746
2019-04-03T08:45:32.289Z,43.011475
2019-04-03T08:45:47.968Z,43.011475
2019-04-03T08:46:02.841Z,43.212891
2019-04-03T08:46:17.355Z,42.614746
2019-04-03T08:46:32.233Z,42.614746
2019-04-03T08:46:47.984Z,42.510986
2019-04-03T08:47:03.279Z,42.41333
2019-04-03T08:47:26.696Z,42.810059
2019-04-03T08:47:44.480Z,42.510986
2019-04-03T08:47:56.020Z,43.188477
2019-04-03T08:48:10.844Z,42.29126
2019-04-03T08:48:25.654Z,43.188477
2019-04-03T08:48:40.431Z,43.389893
2019-04-03T08:48:59.507Z,42.492676
2019-04-03T08:49:14.127Z,42.193604
2019-04-03T08:49:29.535Z,42.29126
2019-04-03T08:49:44.439Z,42.29126
2019-04-03T08:50:02.055Z,42.095947
2019-04-03T08:50:15.090Z,42.39502
2019-04-03T08:50:31.217Z,42.29126
2019-04-03T08:50:46.009Z,42.39502
2019-04-03T08:51:02.875Z,42.29126
2019-04-03T08:51:16.633Z,42.492676
2019-04-03T08:51:31.874Z,42.193604
2019-04-03T08:51:46.696Z,41.894531
2019-04-03T08:52:05.631Z,42.095947
2019-04-03T08:52:19.614Z,41.894531
2019-04-03T08:52:34.728Z,41.595459
2019-04-03T08:52:52.339Z,41.595459
2019-04-03T08:53:08.303Z,41.796875
2019-04-03T08:53:21.638Z,45.861816
2019-04-03T08:53:38.315Z,42.254639
2019-04-03T08:53:53.855Z,41.333008
2019-04-03T08:54:05.674Z,41.333008
2019-04-03T08:54:20.635Z,41.333008
2019-04-03T08:54:34.262Z,44.421387
2019-04-03T08:54:48.745Z,41.63208
2019-04-03T08:55:02.971Z,41.235352
2019-04-03T08:55:18.460Z,40.740967
2019-04-03T08:55:33.156Z,40.838623
2019-04-03T08:55:48.889Z,41.033936
2019-04-03T08:56:03.386Z,40.740967
2019-04-03T08:56:19.102Z,41.253662
2019-04-03T08:56:33.688Z,41.235352
2019-04-03T08:56:49.376Z,41.235352
2019-04-03T08:57:03.318Z,41.534424
2019-04-03T08:57:19.420Z,41.833496
2019-04-03T08:57:32.386Z,41.63208
2019-04-03T08:57:48.091Z,41.436768
2019-04-03T08:58:02.484Z,41.333008
2019-04-03T08:58:17.177Z,41.534424
2019-04-03T08:58:31.568Z,41.217041
2019-04-03T08:58:47.218Z,41.217041
2019-04-03T08:59:01.636Z,42.010498
2019-04-03T08:59:16.650Z,41.314697
2019-04-03T08:59:32.296Z,41.015625
2019-04-03T08:59:47.294Z,40.820312
2019-04-03T09:00:02.267Z,40.618896
2019-04-03T09:00:16.856Z,40.52124
2019-04-03T09:00:32.163Z,40.917969
2019-04-03T09:00:46.257Z,41.516113
2019-04-03T09:01:03.577Z,40.795898
2019-04-03T09:01:15.126Z,40.899658
2019-04-03T09:01:29.519Z,40.600586
2019-04-03T09:01:43.946Z,41.394043
2019-04-03T09:01:59.611Z,42.29126
